createdAt,value
2022-09-06T00:01:14.005Z,21.23
2022-09-06T00:03:42.073Z,21.20
2022-09-06T00:06:12.038Z,21.07
2022-09-06T00:08:39.900Z,20.99
2022-09-06T00:11:08.240Z,21.07
2022-09-06T00:13:36.408Z,21.02
2022-09-06T00:16:09.068Z,21.02
2022-09-06T00:18:38.510Z,21.03
2022-09-06T00:21:15.502Z,21.06
2022-09-06T00:23:43.404Z,21.06
2022-09-06T00:26:11.258Z,21.07
2022-09-06T00:28:39.270Z,21.06
2022-09-06T00:31:11.425Z,21.04
2022-09-06T00:33:40.884Z,21.02
2022-09-06T00:36:09.366Z,21.03
2022-09-06T00:38:37.488Z,20.95
2022-09-06T00:41:05.290Z,20.96
2022-09-06T00:43:33.950Z,20.94
2022-09-06T00:46:03.345Z,20.87
2022-09-06T00:48:31.405Z,20.87
2022-09-06T00:51:03.080Z,20.82
2022-09-06T00:53:32.224Z,20.85
2022-09-06T00:56:00.018Z,20.86
2022-09-06T00:58:27.974Z,20.84
2022-09-06T01:00:55.677Z,20.87
2022-09-06T01:03:24.953Z,20.83
2022-09-06T01:06:07.297Z,20.78
2022-09-06T01:08:48.613Z,20.83
2022-09-06T01:11:41.788Z,20.72
2022-09-06T01:14:20.048Z,20.70
2022-09-06T01:16:55.536Z,20.65
2022-09-06T01:19:54.153Z,20.57
2022-09-06T01:22:49.496Z,20.55
2022-09-06T01:25:36.332Z,20.56
2022-09-06T01:28:31.212Z,20.57
2022-09-06T01:31:12.538Z,20.55
2022-09-06T01:33:48.737Z,20.52
2022-09-06T01:36:19.972Z,20.44
2022-09-06T01:38:47.566Z,20.48
2022-09-06T01:41:15.179Z,20.41
2022-09-06T01:43:49.247Z,20.46
2022-09-06T01:46:21.101Z,20.28
2022-09-06T01:49:01.046Z,20.33
2022-09-06T01:51:35.804Z,20.29
2022-09-06T01:54:21.833Z,20.20
2022-09-06T01:57:02.154Z,20.35
2022-09-06T01:59:48.473Z,20.26
2022-09-06T02:02:23.913Z,20.26
2022-09-06T02:04:56.007Z,20.21
2022-09-06T02:07:27.398Z,20.15
2022-09-06T02:10:03.750Z,20.12
2022-09-06T02:12:33.600Z,20.20
2022-09-06T02:15:07.112Z,20.16
2022-09-06T02:17:39.376Z,20.19
2022-09-06T02:20:10.609Z,20.16
2022-09-06T02:22:41.817Z,20.18
2022-09-06T02:25:13.075Z,20.26
2022-09-06T02:27:40.946Z,20.27
2022-09-06T02:30:11.533Z,20.26
2022-09-06T02:32:43.402Z,20.22
2022-09-06T02:35:15.563Z,20.14
2022-09-06T02:37:44.244Z,20.04
2022-09-06T02:40:12.764Z,20.09
2022-09-06T02:42:41.754Z,19.90
2022-09-06T02:45:11.490Z,19.92
2022-09-06T02:47:39.108Z,19.88
2022-09-06T02:50:08.136Z,19.92
2022-09-06T02:52:36.126Z,19.97
2022-09-06T02:55:04.549Z,20.01
2022-09-06T02:57:32.168Z,19.87
2022-09-06T02:59:59.781Z,19.89
2022-09-06T03:02:28.761Z,19.80
2022-09-06T03:04:58.877Z,19.78
2022-09-06T03:07:26.474Z,19.81
2022-09-06T03:09:54.200Z,19.75
2022-09-06T03:12:21.944Z,19.69
2022-09-06T03:14:54.271Z,19.67
2022-09-06T03:17:22.539Z,19.65
2022-09-06T03:19:51.457Z,19.69
2022-09-06T03:22:19.143Z,19.53
2022-09-06T03:24:46.688Z,19.58
2022-09-06T03:27:14.313Z,19.51
2022-09-06T03:29:41.944Z,19.46
2022-09-06T03:32:09.536Z,19.49
2022-09-06T03:34:37.118Z,19.46
2022-09-06T03:37:06.265Z,19.46
2022-09-06T03:39:33.956Z,19.42
2022-09-06T03:42:01.602Z,19.48
2022-09-06T03:44:29.277Z,19.46
2022-09-06T03:46:56.890Z,19.47
2022-09-06T03:49:24.669Z,19.43
2022-09-06T03:51:52.290Z,19.48
2022-09-06T03:54:21.214Z,19.42
2022-09-06T03:56:48.827Z,19.38
2022-09-06T03:59:16.434Z,19.33
2022-09-06T04:01:44.122Z,19.35
2022-09-06T04:04:11.777Z,19.31
2022-09-06T04:06:39.396Z,19.35
2022-09-06T04:09:06.982Z,19.36
2022-09-06T04:11:35.976Z,19.38
2022-09-06T04:14:03.618Z,19.33
2022-09-06T04:16:31.291Z,19.31
2022-09-06T04:19:00.744Z,19.20
2022-09-06T04:21:28.675Z,19.07
2022-09-06T04:23:56.583Z,19.12
2022-09-06T04:26:24.285Z,19.09
2022-09-06T04:28:53.237Z,19.04
2022-09-06T04:31:20.885Z,18.96
2022-09-06T04:33:48.535Z,18.89
2022-09-06T04:36:16.133Z,18.90
2022-09-06T04:38:45.370Z,18.94
2022-09-06T04:41:14.614Z,18.87
2022-09-06T04:43:42.504Z,18.82
2022-09-06T04:46:18.787Z,18.87
2022-09-06T04:48:46.559Z,18.91
2022-09-06T04:51:14.227Z,18.92
2022-09-06T04:53:41.916Z,18.95
2022-09-06T04:56:16.893Z,18.92
2022-09-06T04:58:44.635Z,18.94
2022-09-06T05:01:13.745Z,18.78
2022-09-06T05:03:41.620Z,18.82
2022-09-06T05:06:10.964Z,18.81
2022-09-06T05:08:39.835Z,18.83
2022-09-06T05:11:08.710Z,18.82
2022-09-06T05:13:36.684Z,18.68
2022-09-06T05:16:06.111Z,18.73
2022-09-06T05:18:35.716Z,18.68
2022-09-06T05:21:03.496Z,18.72
2022-09-06T05:23:31.112Z,18.76
2022-09-06T05:25:58.764Z,18.70
2022-09-06T05:28:26.424Z,18.77
2022-09-06T05:30:54.089Z,18.75
2022-09-06T05:33:23.681Z,18.71
2022-09-06T05:35:52.578Z,18.60
2022-09-06T05:38:20.219Z,18.57
2022-09-06T05:40:47.838Z,18.63
2022-09-06T05:43:18.424Z,18.65
2022-09-06T05:45:46.189Z,18.63
2022-09-06T05:48:13.946Z,18.68
2022-09-06T05:50:41.558Z,18.65
2022-09-06T05:53:10.498Z,18.64
2022-09-06T05:55:42.336Z,18.75
2022-09-06T05:58:10.668Z,18.84
2022-09-06T06:00:38.253Z,18.88
2022-09-06T06:03:05.833Z,18.91
2022-09-06T06:05:33.419Z,18.95
2022-09-06T06:08:01.091Z,19.00
2022-09-06T06:10:30.140Z,19.04
2022-09-06T06:12:58.276Z,19.09
2022-09-06T06:15:25.956Z,19.17
2022-09-06T06:17:53.524Z,19.25
2022-09-06T06:20:21.182Z,19.29
2022-09-06T06:22:48.772Z,19.29
2022-09-06T06:25:17.006Z,19.33
2022-09-06T06:27:45.912Z,19.39
2022-09-06T06:30:18.238Z,19.13
2022-09-06T06:32:46.123Z,18.93
2022-09-06T06:35:14.389Z,19.07
2022-09-06T06:37:42.881Z,18.80
2022-09-06T06:40:11.606Z,18.50
2022-09-06T06:42:39.288Z,18.26
2022-09-06T06:45:09.453Z,18.44
2022-09-06T06:47:37.085Z,18.39
2022-09-06T06:50:05.253Z,18.53
2022-09-06T06:52:32.877Z,18.68
2022-09-06T06:55:00.559Z,18.78
2022-09-06T06:57:28.292Z,18.61
2022-09-06T06:59:55.932Z,18.18
2022-09-06T07:02:25.151Z,17.69
2022-09-06T07:04:52.859Z,17.46
2022-09-06T07:07:38.028Z,17.16
2022-09-06T07:12:56.372Z,17.22
2022-09-06T07:15:24.292Z,17.34
2022-09-06T07:17:55.327Z,17.47
2022-09-06T07:20:23.569Z,17.52
2022-09-06T07:25:47.770Z,17.22
2022-09-06T07:28:15.451Z,17.22
2022-09-06T07:30:43.115Z,17.27
2022-09-06T07:33:12.455Z,17.36
2022-09-06T07:35:40.042Z,17.47
2022-09-06T07:38:07.658Z,17.59
2022-09-06T07:40:35.267Z,17.61
2022-09-06T07:43:02.886Z,17.75
2022-09-06T07:45:30.476Z,17.87
2022-09-06T07:47:59.767Z,17.95
2022-09-06T07:50:46.464Z,18.02
2022-09-06T07:53:18.445Z,18.05
2022-09-06T07:55:50.885Z,17.92
2022-09-06T07:58:18.529Z,17.93
2022-09-06T08:00:46.178Z,17.92
2022-09-06T08:03:13.807Z,17.96
2022-09-06T08:11:19.841Z,17.49
2022-09-06T08:13:50.968Z,17.62
2022-09-06T08:16:20.064Z,17.56
2022-09-06T08:18:52.499Z,17.74
2022-09-06T08:21:23.729Z,17.50
2022-09-06T08:23:52.924Z,17.54
2022-09-06T08:26:22.691Z,17.28
2022-09-06T08:28:54.594Z,17.54
2022-09-06T08:31:23.300Z,17.66
2022-09-06T08:33:52.297Z,17.80
2022-09-06T08:36:21.901Z,17.69
2022-09-06T08:38:49.504Z,17.77
2022-09-06T08:41:25.801Z,17.86
2022-09-06T08:46:51.908Z,18.18
2022-09-06T08:49:19.632Z,18.35
2022-09-06T08:52:08.192Z,18.58
2022-09-06T08:54:41.419Z,18.71
2022-09-06T08:57:16.921Z,18.81
2022-09-06T08:59:44.558Z,18.91
2022-09-06T09:02:15.397Z,19.00
2022-09-06T09:04:47.936Z,19.02
2022-09-06T09:07:36.752Z,19.06
2022-09-06T09:10:09.576Z,19.06
2022-09-06T09:12:45.077Z,19.02
2022-09-06T09:15:15.901Z,18.84
2022-09-06T09:17:45.123Z,18.88
2022-09-06T09:20:12.788Z,18.89
2022-09-06T09:22:43.015Z,18.92
2022-09-06T09:25:21.220Z,19.07
2022-09-06T09:27:57.413Z,19.23
2022-09-06T09:33:26.734Z,19.35
2022-09-06T09:35:55.185Z,19.50
2022-09-06T09:38:27.776Z,19.58
2022-09-06T09:40:57.327Z,19.71
2022-09-06T09:43:27.356Z,19.79
2022-09-06T09:46:15.698Z,19.96
2022-09-06T09:48:49.554Z,19.90
2022-09-06T09:51:26.622Z,19.76
2022-09-06T09:53:58.709Z,19.92
2022-09-06T09:56:33.545Z,20.20
2022-09-06T09:59:03.600Z,20.01
2022-09-06T10:01:34.560Z,19.83
2022-09-06T10:07:10.130Z,19.77
2022-09-06T10:09:42.088Z,19.68
2022-09-06T10:12:16.614Z,19.42
2022-09-06T10:14:46.388Z,19.35
2022-09-06T10:17:28.656Z,19.45
2022-09-06T10:19:56.606Z,19.53
2022-09-06T10:22:28.538Z,19.36
2022-09-06T10:25:19.530Z,19.42
2022-09-06T10:28:10.896Z,19.48
2022-09-06T10:30:45.784Z,19.61
2022-09-06T10:33:27.342Z,19.52
2022-09-06T10:35:58.496Z,19.54
2022-09-06T10:38:41.688Z,19.58
2022-09-06T10:41:33.139Z,19.67
2022-09-06T10:44:13.941Z,19.58
2022-09-06T10:46:46.314Z,19.66
2022-09-06T10:49:18.674Z,19.62
2022-09-06T10:51:50.023Z,19.59
2022-09-06T10:54:21.967Z,19.58
2022-09-06T10:56:57.018Z,19.61
2022-09-06T10:59:37.457Z,19.53
2022-09-06T11:02:19.564Z,19.68
2022-09-06T11:07:41.474Z,19.90
2022-09-06T11:10:17.150Z,19.91
2022-09-06T11:12:51.407Z,19.95
2022-09-06T11:15:21.940Z,20.08
2022-09-06T11:17:54.215Z,20.29
2022-09-06T11:20:31.998Z,20.45
2022-09-06T11:23:31.309Z,20.28
2022-09-06T11:26:15.010Z,20.40
2022-09-06T11:28:48.692Z,20.40
2022-09-06T11:34:21.578Z,20.67
2022-09-06T11:36:52.446Z,20.77
2022-09-06T11:42:42.534Z,21.12
2022-09-06T11:45:22.082Z,21.24
2022-09-06T11:47:50.645Z,21.42
2022-09-06T11:51:01.888Z,21.64
2022-09-06T11:53:31.829Z,21.79
2022-09-06T11:56:25.838Z,21.80
2022-09-06T11:58:58.640Z,21.98
2022-09-06T12:01:40.922Z,22.22
2022-09-06T12:04:11.697Z,22.26
2022-09-06T12:06:43.599Z,22.33
2022-09-06T12:09:32.267Z,22.45
2022-09-06T12:12:01.163Z,22.58
2022-09-06T12:14:35.742Z,22.74
2022-09-06T12:17:25.527Z,22.90
2022-09-06T12:19:59.445Z,23.01
2022-09-06T12:22:54.573Z,23.04
2022-09-06T12:25:52.483Z,23.12
2022-09-06T12:28:47.085Z,23.30
2022-09-06T12:31:25.427Z,23.48
2022-09-06T12:33:54.757Z,23.59
2022-09-06T12:36:29.698Z,23.77
2022-09-06T12:39:01.740Z,23.78
2022-09-06T12:41:31.827Z,23.72
2022-09-06T12:44:01.364Z,23.78
2022-09-06T12:46:30.940Z,23.91
2022-09-06T12:49:09.645Z,24.04
2022-09-06T12:51:38.820Z,24.16
2022-09-06T12:54:21.758Z,24.23
2022-09-06T12:56:50.304Z,24.27
2022-09-06T12:59:20.206Z,24.33
2022-09-06T13:01:56.358Z,24.38
2022-09-06T13:04:32.135Z,24.50
2022-09-06T13:07:03.450Z,24.63
2022-09-06T13:09:33.717Z,24.77
2022-09-06T13:12:07.643Z,24.91
2022-09-06T13:14:36.121Z,25.08
2022-09-06T13:17:04.580Z,25.07
2022-09-06T13:19:35.331Z,25.11
2022-09-06T13:22:05.435Z,25.17
2022-09-06T13:24:47.115Z,25.15
2022-09-06T13:27:26.254Z,25.20
2022-09-06T13:29:58.881Z,25.27
2022-09-06T13:32:28.101Z,25.36
2022-09-06T13:34:57.771Z,25.45
2022-09-06T13:37:27.135Z,25.48
2022-09-06T13:39:57.191Z,25.67
2022-09-06T13:42:30.784Z,25.66
2022-09-06T13:45:17.758Z,25.81
2022-09-06T13:47:45.448Z,25.84
2022-09-06T13:50:13.228Z,25.91
2022-09-06T13:52:41.315Z,25.85
2022-09-06T13:55:15.335Z,25.84
2022-09-06T13:57:43.649Z,25.86
2022-09-06T14:00:12.474Z,25.82
2022-09-06T14:02:41.435Z,25.85
2022-09-06T14:05:09.500Z,25.99
2022-09-06T14:07:37.293Z,26.08
2022-09-06T14:10:06.042Z,26.07
2022-09-06T14:12:35.574Z,26.01
2022-09-06T14:15:03.257Z,25.91
2022-09-06T14:17:32.752Z,25.89
2022-09-06T14:20:03.360Z,25.85
2022-09-06T14:22:31.249Z,25.81
2022-09-06T14:24:58.878Z,25.67
2022-09-06T14:27:27.254Z,25.48
2022-09-06T14:29:56.212Z,25.36
2022-09-06T14:32:24.681Z,25.28
2022-09-06T14:34:52.392Z,25.21
2022-09-06T14:37:21.562Z,25.18
2022-09-06T14:39:50.225Z,25.13
2022-09-06T14:42:17.990Z,25.09
2022-09-06T14:44:45.725Z,25.02
2022-09-06T14:47:14.681Z,24.95
2022-09-06T14:49:42.259Z,24.87
2022-09-06T14:52:10.134Z,24.83
2022-09-06T14:54:37.921Z,24.75
2022-09-06T14:57:06.819Z,24.69
2022-09-06T14:59:34.490Z,24.65
2022-09-06T15:02:02.294Z,24.63
2022-09-06T15:04:31.321Z,24.61
2022-09-06T15:06:59.066Z,24.57
2022-09-06T15:09:27.610Z,24.52
2022-09-06T15:11:55.492Z,24.49
2022-09-06T15:14:24.769Z,24.48
2022-09-06T15:16:56.509Z,24.47
2022-09-06T15:19:25.329Z,24.44
2022-09-06T15:21:54.414Z,24.41
2022-09-06T15:24:22.702Z,24.40
2022-09-06T15:26:50.412Z,24.37
2022-09-06T15:29:18.613Z,24.36
2022-09-06T15:31:50.211Z,24.34
2022-09-06T15:34:18.367Z,24.32
2022-09-06T15:36:46.072Z,24.29
2022-09-06T15:39:15.138Z,24.27
2022-09-06T15:41:42.789Z,24.27
2022-09-06T15:44:11.943Z,24.25
2022-09-06T15:46:51.021Z,24.22
2022-09-06T15:49:25.614Z,24.23
2022-09-06T15:51:56.131Z,24.20
2022-09-06T15:54:46.000Z,24.18
2022-09-06T15:57:16.210Z,24.14
2022-09-06T15:59:44.457Z,24.15
2022-09-06T16:02:12.678Z,24.13
2022-09-06T16:04:40.590Z,24.10
2022-09-06T16:07:08.938Z,24.12
2022-09-06T16:09:37.971Z,24.16
2022-09-06T16:12:06.080Z,24.17
2022-09-06T16:14:33.665Z,24.19
2022-09-06T16:17:01.329Z,24.20
2022-09-06T16:19:28.973Z,24.21
2022-09-06T16:21:58.674Z,24.22
2022-09-06T16:24:26.488Z,24.21
2022-09-06T16:26:55.530Z,24.19
2022-09-06T16:29:23.234Z,24.20
2022-09-06T16:31:52.624Z,24.19
2022-09-06T16:34:20.319Z,24.18
2022-09-06T16:36:49.982Z,24.15
2022-09-06T16:39:17.659Z,24.12
2022-09-06T16:41:47.156Z,24.11
2022-09-06T16:44:18.097Z,24.08
2022-09-06T16:46:47.515Z,24.05
2022-09-06T16:49:17.322Z,24.01
2022-09-06T16:51:46.024Z,23.97
2022-09-06T16:54:15.324Z,23.91
2022-09-06T16:56:43.203Z,23.83
2022-09-06T16:59:11.974Z,23.71
2022-09-06T17:01:41.855Z,23.62
2022-09-06T17:04:10.503Z,23.49
2022-09-06T17:06:44.136Z,23.41
2022-09-06T17:09:12.794Z,23.40
2022-09-06T17:11:40.920Z,23.38
2022-09-06T17:14:09.025Z,23.36
2022-09-06T17:16:54.284Z,23.33
2022-09-06T17:19:23.387Z,23.31
2022-09-06T17:21:51.006Z,23.28
2022-09-06T17:24:18.725Z,23.25
2022-09-06T17:26:46.363Z,23.21
2022-09-06T17:29:14.077Z,23.15
2022-09-06T17:31:41.748Z,23.11
2022-09-06T17:34:09.689Z,23.10
2022-09-06T17:36:39.856Z,23.14
2022-09-06T17:39:09.401Z,23.16
2022-09-06T17:41:39.252Z,23.14
2022-09-06T17:44:10.374Z,23.14
2022-09-06T17:46:47.565Z,23.07
2022-09-06T17:49:20.354Z,23.00
2022-09-06T17:51:49.477Z,22.86
2022-09-06T17:54:17.680Z,22.80
2022-09-06T17:56:45.548Z,22.78
2022-09-06T17:59:15.533Z,22.75
2022-09-06T18:01:45.618Z,22.74
2022-09-06T18:04:14.919Z,22.73
2022-09-06T18:06:46.267Z,22.70
2022-09-06T18:09:17.751Z,22.65
2022-09-06T18:11:47.289Z,22.62
2022-09-06T18:14:20.633Z,22.61
2022-09-06T18:16:49.474Z,22.57
2022-09-06T18:19:18.843Z,22.50
2022-09-06T18:21:47.318Z,22.49
2022-09-06T18:24:16.684Z,22.44
2022-09-06T18:26:44.936Z,22.40
2022-09-06T18:29:18.279Z,22.37
2022-09-06T18:31:45.974Z,22.33
2022-09-06T18:34:13.927Z,22.28
2022-09-06T18:36:42.193Z,22.26
2022-09-06T18:39:11.239Z,22.26
2022-09-06T18:41:58.007Z,22.20
2022-09-06T18:44:28.279Z,22.17
2022-09-06T18:47:01.186Z,22.08
2022-09-06T18:49:30.070Z,22.01
2022-09-06T18:52:00.009Z,21.93
2022-09-06T18:54:27.988Z,21.96
2022-09-06T18:56:57.401Z,21.96
2022-09-06T18:59:25.080Z,21.99
2022-09-06T19:01:52.857Z,21.91
2022-09-06T19:04:20.784Z,21.85
2022-09-06T19:06:48.586Z,21.79
2022-09-06T19:09:18.069Z,21.75
2022-09-06T19:11:49.174Z,21.71
2022-09-06T19:14:18.424Z,21.70
2022-09-06T19:16:46.430Z,21.71
2022-09-06T19:19:14.164Z,21.71
2022-09-06T19:21:42.702Z,21.67
2022-09-06T19:24:12.051Z,21.71
2022-09-06T19:26:41.539Z,21.73
2022-09-06T19:29:13.379Z,21.76
2022-09-06T19:31:43.731Z,21.72
2022-09-06T19:34:12.186Z,21.68
2022-09-06T19:36:40.298Z,21.60
2022-09-06T19:39:10.413Z,21.63
2022-09-06T19:41:41.708Z,21.65
2022-09-06T19:44:11.620Z,21.59
2022-09-06T19:46:45.375Z,21.59
2022-09-06T19:49:16.564Z,21.60
2022-09-06T19:51:46.356Z,21.63
2022-09-06T19:54:15.401Z,21.56
2022-09-06T19:56:44.389Z,21.56
2022-09-06T19:59:13.604Z,21.53
2022-09-06T20:01:43.325Z,21.50
2022-09-06T20:04:12.866Z,21.43
2022-09-06T20:06:42.610Z,21.44
2022-09-06T20:09:11.833Z,21.42
2022-09-06T20:11:41.057Z,21.38
2022-09-06T20:14:09.693Z,21.35
2022-09-06T20:16:41.390Z,21.29
2022-09-06T20:19:11.968Z,21.28
2022-09-06T20:21:40.074Z,21.27
2022-09-06T20:24:10.125Z,21.24
2022-09-06T20:26:38.051Z,21.19
2022-09-06T20:29:06.846Z,21.17
2022-09-06T20:31:36.477Z,21.22
2022-09-06T20:34:06.448Z,21.25
2022-09-06T20:36:34.598Z,21.23
2022-09-06T20:39:03.277Z,21.21
2022-09-06T20:41:33.778Z,21.20
2022-09-06T20:44:02.007Z,21.22
2022-09-06T20:46:32.185Z,21.22
2022-09-06T20:49:04.224Z,21.21
2022-09-06T20:51:33.335Z,21.22
2022-09-06T20:54:05.189Z,21.17
2022-09-06T20:56:37.298Z,21.14
2022-09-06T20:59:07.198Z,21.07
2022-09-06T21:01:37.009Z,21.04
2022-09-06T21:04:07.574Z,21.05
2022-09-06T21:06:37.062Z,21.08
2022-09-06T21:09:06.707Z,21.07
2022-09-06T21:11:36.174Z,21.01
2022-09-06T21:14:05.001Z,21.01
2022-09-06T21:16:33.903Z,20.99
2022-09-06T21:19:03.809Z,21.00
2022-09-06T21:21:33.213Z,20.99
2022-09-06T21:24:01.160Z,21.01
2022-09-06T21:26:28.946Z,21.03
2022-09-06T21:28:58.160Z,21.03
2022-09-06T21:31:27.667Z,21.02
2022-09-06T21:33:58.050Z,20.90
2022-09-06T21:36:29.395Z,20.85
2022-09-06T21:38:59.211Z,20.83
2022-09-06T21:41:27.574Z,20.83
2022-09-06T21:43:56.862Z,20.80
2022-09-06T21:46:32.364Z,20.75
2022-09-06T21:49:03.772Z,20.75
2022-09-06T21:51:32.260Z,20.76
2022-09-06T21:54:03.322Z,20.79
2022-09-06T21:56:31.655Z,20.72
2022-09-06T21:58:59.923Z,20.73
2022-09-06T22:01:31.536Z,20.72
2022-09-06T22:03:59.329Z,20.72
2022-09-06T22:06:28.940Z,20.74
2022-09-06T22:08:57.486Z,20.74
2022-09-06T22:11:27.691Z,20.75
2022-09-06T22:13:59.081Z,20.68
2022-09-06T22:16:27.901Z,20.52
2022-09-06T22:18:57.250Z,20.51
2022-09-06T22:21:25.218Z,20.44
2022-09-06T22:23:54.103Z,20.38
2022-09-06T22:26:23.050Z,20.38
2022-09-06T22:28:54.382Z,20.39
2022-09-06T22:31:22.724Z,20.32
2022-09-06T22:33:50.710Z,20.29
2022-09-06T22:36:19.765Z,20.32
2022-09-06T22:38:47.440Z,20.33
2022-09-06T22:41:15.206Z,20.36
2022-09-06T22:43:42.804Z,20.37
2022-09-06T22:46:12.588Z,20.35
2022-09-06T22:48:40.288Z,20.37
2022-09-06T22:51:08.191Z,20.36
2022-09-06T22:53:37.233Z,20.36
2022-09-06T22:56:05.445Z,20.38
2022-09-06T22:58:33.816Z,20.38
2022-09-06T23:01:07.351Z,20.36
2022-09-06T23:03:35.275Z,20.38
2022-09-06T23:06:03.718Z,20.35
2022-09-06T23:08:32.098Z,20.33
2022-09-06T23:11:05.485Z,20.29
2022-09-06T23:13:33.194Z,20.30
2022-09-06T23:16:03.882Z,20.29
2022-09-06T23:18:31.626Z,20.29
2022-09-06T23:21:04.584Z,20.27
2022-09-06T23:23:32.241Z,20.28
2022-09-06T23:26:06.156Z,20.30
2022-09-06T23:28:33.766Z,20.33
2022-09-06T23:31:02.756Z,20.30
2022-09-06T23:33:31.241Z,20.30
2022-09-06T23:35:59.170Z,20.24
2022-09-06T23:38:27.016Z,20.25
2022-09-06T23:40:54.687Z,20.26
2022-09-06T23:43:23.617Z,20.29
2022-09-06T23:45:51.232Z,20.26
2022-09-06T23:48:18.952Z,20.21
2022-09-06T23:50:46.835Z,20.16
2022-09-06T23:53:16.318Z,20.04
2022-09-06T23:55:44.649Z,20.06
2022-09-06T23:58:12.540Z,20.02
